createdAt,value
2018-12-10T00:00:11.472Z,86.44
2018-12-10T00:02:39.931Z,88.03
2018-12-10T00:05:08.378Z,88.12
2018-12-10T00:07:36.839Z,87.85
2018-12-10T00:10:05.509Z,86.59
2018-12-10T00:12:33.928Z,86.97
2018-12-10T00:15:02.408Z,87.00
2018-12-10T00:17:30.836Z,86.58
2018-12-10T00:19:59.279Z,86.63
2018-12-10T00:22:27.846Z,86.07
2018-12-10T00:24:56.384Z,85.62
2018-12-10T00:27:25.756Z,86.14
2018-12-10T00:29:54.234Z,86.09
2018-12-10T00:32:22.692Z,85.90
2018-12-10T00:34:51.157Z,85.67
2018-12-10T00:37:19.713Z,87.41
2018-12-10T00:39:48.131Z,87.87
2018-12-10T00:42:16.568Z,88.62
2018-12-10T00:44:45.059Z,87.98
2018-12-10T00:47:13.496Z,86.83
2018-12-10T00:49:41.939Z,87.01
2018-12-10T00:52:10.394Z,86.71
2018-12-10T00:54:39.071Z,87.16
2018-12-10T00:57:07.576Z,87.29
2018-12-10T00:59:36.064Z,87.17
2018-12-10T01:02:04.470Z,86.76
2018-12-10T01:04:32.895Z,86.42
2018-12-10T01:07:01.361Z,86.31
2018-12-10T01:09:29.814Z,86.44
2018-12-10T01:11:58.236Z,86.44
2018-12-10T01:14:26.830Z,86.56
2018-12-10T01:16:55.268Z,86.55
2018-12-10T01:19:23.669Z,85.80
2018-12-10T01:21:52.244Z,86.42
2018-12-10T01:24:20.691Z,86.98
2018-12-10T01:26:49.114Z,87.32
2018-12-10T01:29:17.554Z,87.72
2018-12-10T01:31:45.981Z,86.07
2018-12-10T01:34:14.392Z,86.09
2018-12-10T01:36:42.873Z,87.05
2018-12-10T01:39:11.279Z,86.59
2018-12-10T01:41:39.707Z,87.26
2018-12-10T01:44:08.199Z,87.70
2018-12-10T01:46:36.636Z,87.73
2018-12-10T01:49:05.085Z,87.90
2018-12-10T01:51:33.569Z,87.29
2018-12-10T01:54:01.996Z,87.65
2018-12-10T01:56:30.421Z,87.13
2018-12-10T01:58:58.878Z,87.20
2018-12-10T02:01:27.304Z,87.34
2018-12-10T02:03:55.747Z,87.39
2018-12-10T02:06:24.432Z,87.61
2018-12-10T02:08:52.932Z,87.74
2018-12-10T02:11:21.377Z,88.22
2018-12-10T02:13:49.838Z,88.54
2018-12-10T02:16:18.245Z,88.55
2018-12-10T02:18:46.667Z,87.53
2018-12-10T02:21:15.172Z,86.60
2018-12-10T02:23:43.877Z,87.45
2018-12-10T02:26:12.831Z,88.07
2018-12-10T02:28:47.048Z,88.30
2018-12-10T02:31:15.509Z,88.13
2018-12-10T02:33:44.002Z,88.60
2018-12-10T02:36:12.451Z,88.50
2018-12-10T02:38:40.867Z,88.00
2018-12-10T02:41:09.310Z,88.01
2018-12-10T02:43:37.760Z,87.72
2018-12-10T02:46:06.181Z,87.32
2018-12-10T02:48:34.597Z,87.08
2018-12-10T02:51:03.119Z,87.09
2018-12-10T02:53:31.585Z,87.08
2018-12-10T02:56:00.009Z,87.09
2018-12-10T02:58:28.481Z,87.25
2018-12-10T03:00:56.925Z,87.13
2018-12-10T03:03:25.369Z,86.75
2018-12-10T03:05:53.825Z,86.76
2018-12-10T03:08:22.283Z,86.67
2018-12-10T03:10:50.764Z,86.50
2018-12-10T03:13:19.328Z,86.80
2018-12-10T03:15:47.780Z,87.26
2018-12-10T03:18:16.229Z,86.64
2018-12-10T03:20:44.733Z,86.43
2018-12-10T03:23:13.427Z,86.51
2018-12-10T03:25:42.140Z,86.62
2018-12-10T03:28:10.646Z,86.65
2018-12-10T03:30:39.081Z,86.98
2018-12-10T03:33:07.581Z,86.62
2018-12-10T03:35:36.057Z,85.54
2018-12-10T03:38:04.513Z,85.72
2018-12-10T03:40:32.991Z,86.52
2018-12-10T03:43:01.449Z,86.86
2018-12-10T03:45:29.937Z,86.87
2018-12-10T03:47:58.359Z,87.11
2018-12-10T03:50:26.832Z,86.92
2018-12-10T03:52:55.260Z,86.98
2018-12-10T03:55:23.672Z,86.90
2018-12-10T03:57:52.118Z,86.62
2018-12-10T04:00:20.597Z,86.38
2018-12-10T04:02:49.113Z,86.52
2018-12-10T04:05:17.594Z,86.80
2018-12-10T04:07:46.045Z,86.88
2018-12-10T04:10:14.493Z,86.04
2018-12-10T04:12:43.007Z,86.47
2018-12-10T04:15:11.457Z,86.95
2018-12-10T04:17:39.917Z,85.43
2018-12-10T04:20:08.371Z,86.20
2018-12-10T04:22:36.807Z,86.81
2018-12-10T04:25:05.397Z,87.22
2018-12-10T04:27:34.172Z,87.33
2018-12-10T04:30:02.646Z,87.19
2018-12-10T04:32:31.050Z,86.70
2018-12-10T04:34:59.518Z,87.19
2018-12-10T04:37:27.959Z,87.13
2018-12-10T04:39:56.372Z,87.46
2018-12-10T04:42:24.829Z,87.33
2018-12-10T04:44:53.264Z,87.35
2018-12-10T04:47:21.730Z,87.33
2018-12-10T04:49:50.335Z,86.98
2018-12-10T04:52:18.768Z,86.95
2018-12-10T04:54:47.213Z,86.78
2018-12-10T04:57:15.693Z,87.72
2018-12-10T04:59:44.111Z,87.72
2018-12-10T05:02:12.550Z,86.61
2018-12-10T05:04:41.061Z,87.57
2018-12-10T05:07:09.505Z,88.61
2018-12-10T05:09:38.356Z,89.26
2018-12-10T05:12:06.829Z,88.47
2018-12-10T05:14:35.332Z,87.92
2018-12-10T05:17:03.918Z,87.75
2018-12-10T05:19:32.394Z,86.38
2018-12-10T05:22:00.804Z,88.14
2018-12-10T05:24:29.266Z,87.92
2018-12-10T05:26:57.692Z,88.07
2018-12-10T05:29:26.142Z,88.02
2018-12-10T05:31:54.639Z,87.94
2018-12-10T05:34:23.085Z,89.08
2018-12-10T05:36:51.530Z,89.32
2018-12-10T05:39:20.024Z,88.92
2018-12-10T05:41:48.663Z,89.28
2018-12-10T05:44:17.128Z,89.23
2018-12-10T05:46:46.356Z,89.24
2018-12-10T05:49:14.793Z,88.41
2018-12-10T05:51:43.207Z,87.80
2018-12-10T05:54:11.695Z,88.02
2018-12-10T05:56:40.119Z,88.56
2018-12-10T05:59:08.580Z,87.83
2018-12-10T06:01:37.076Z,87.79
2018-12-10T06:04:05.803Z,88.38
2018-12-10T06:06:34.245Z,88.29
2018-12-10T06:09:02.728Z,88.13
2018-12-10T06:11:31.139Z,88.16
2018-12-10T06:13:59.575Z,88.08
2018-12-10T06:16:28.038Z,87.88
2018-12-10T06:18:56.490Z,87.90
2018-12-10T06:21:24.909Z,87.98
2018-12-10T06:23:53.396Z,87.69
2018-12-10T06:26:21.859Z,87.77
2018-12-10T06:28:50.676Z,87.52
2018-12-10T06:31:19.146Z,87.31
2018-12-10T06:33:48.553Z,87.32
2018-12-10T06:36:17.685Z,87.46
2018-12-10T06:38:46.184Z,87.33
2018-12-10T06:41:14.647Z,89.29
2018-12-10T06:43:43.090Z,88.81
2018-12-10T06:46:13.788Z,85.96
2018-12-10T06:48:42.229Z,85.15
2018-12-10T06:51:10.908Z,85.86
2018-12-10T06:53:41.548Z,86.50
2018-12-10T06:56:09.961Z,86.74
2018-12-10T06:58:38.642Z,86.72
2018-12-10T07:01:07.300Z,86.34
2018-12-10T07:03:36.728Z,93.26
2018-12-10T07:06:05.216Z,89.08
2018-12-10T07:08:33.709Z,85.51
2018-12-10T07:11:03.060Z,84.29
2018-12-10T07:13:31.577Z,82.78
2018-12-10T07:16:00.100Z,83.25
2018-12-10T07:18:30.330Z,81.48
2018-12-10T07:20:59.341Z,79.37
2018-12-10T07:23:28.783Z,78.84
2018-12-10T07:25:58.345Z,79.50
2018-12-10T07:28:27.362Z,80.09
2018-12-10T07:30:56.809Z,80.61
2018-12-10T07:33:25.282Z,81.25
2018-12-10T07:35:53.991Z,81.29
2018-12-10T07:38:22.832Z,82.47
2018-12-10T07:40:52.377Z,82.57
2018-12-10T07:43:21.753Z,82.66
2018-12-10T07:45:50.248Z,82.45
2018-12-10T07:48:18.723Z,82.92
2018-12-10T07:50:47.436Z,82.93
2018-12-10T07:53:15.948Z,83.24
2018-12-10T07:55:45.484Z,83.39
2018-12-10T07:58:14.340Z,83.03
2018-12-10T08:00:43.301Z,83.25
2018-12-10T08:03:11.750Z,82.98
2018-12-10T08:05:40.250Z,83.19
2018-12-10T08:08:08.753Z,82.92
2018-12-10T08:10:37.177Z,82.53
2018-12-10T08:13:05.600Z,82.48
2018-12-10T08:15:34.110Z,82.28
2018-12-10T08:18:02.560Z,82.07
2018-12-10T08:20:31.037Z,82.00
2018-12-10T08:23:00.950Z,82.72
2018-12-10T08:25:29.639Z,82.96
2018-12-10T08:28:00.061Z,82.79
2018-12-10T08:30:28.579Z,82.94
2018-12-10T08:32:57.265Z,82.79
2018-12-10T08:35:26.022Z,82.70
2018-12-10T08:37:54.605Z,82.23
2018-12-10T08:40:23.502Z,82.51
2018-12-10T08:42:52.071Z,82.90
2018-12-10T08:45:20.812Z,82.44
2018-12-10T08:47:50.433Z,82.17
2018-12-10T08:50:19.252Z,81.90
2018-12-10T08:52:47.735Z,81.72
2018-12-10T08:55:16.609Z,80.94
2018-12-10T08:57:45.050Z,80.58
2018-12-10T09:00:14.309Z,80.48
2018-12-10T09:02:42.720Z,80.48
2018-12-10T09:05:11.436Z,80.69
2018-12-10T09:07:41.062Z,80.42
2018-12-10T09:10:09.895Z,80.35
2018-12-10T09:12:46.953Z,79.96
2018-12-10T09:15:11.959Z,80.15
2018-12-10T09:17:40.413Z,78.93
2018-12-10T09:20:09.451Z,78.54
2018-12-10T09:22:40.782Z,77.96
2018-12-10T09:25:09.259Z,77.26
2018-12-10T09:27:40.030Z,76.87
2018-12-10T09:30:11.007Z,77.33
2018-12-10T09:32:40.158Z,77.57
2018-12-10T09:35:11.280Z,77.93
2018-12-10T09:37:40.385Z,77.95
2018-12-10T09:40:09.575Z,78.03
2018-12-10T09:42:41.045Z,77.90
2018-12-10T09:45:09.950Z,78.13
2018-12-10T09:47:39.054Z,78.01
2018-12-10T09:50:11.172Z,77.90
2018-12-10T09:52:42.970Z,76.88
2018-12-10T09:55:13.740Z,76.25
2018-12-10T09:57:42.255Z,75.55
2018-12-10T10:00:11.110Z,73.71
2018-12-10T10:02:40.669Z,73.55
2018-12-10T10:05:09.542Z,72.84
2018-12-10T10:07:40.589Z,73.07
2018-12-10T10:10:11.325Z,73.44
2018-12-10T10:12:40.220Z,72.95
2018-12-10T10:15:10.030Z,71.98
2018-12-10T10:17:38.502Z,71.89
2018-12-10T10:20:09.748Z,70.83
2018-12-10T10:22:38.236Z,66.06
2018-12-10T10:25:07.191Z,62.78
2018-12-10T10:27:36.309Z,64.08
2018-12-10T10:30:05.205Z,61.72
2018-12-10T10:32:34.455Z,62.14
2018-12-10T10:35:03.364Z,59.56
2018-12-10T10:37:35.212Z,59.77
2018-12-10T10:40:04.630Z,57.76
2018-12-10T10:42:33.278Z,56.94
2018-12-10T10:45:01.755Z,56.93
2018-12-10T10:47:30.433Z,55.03
2018-12-10T10:49:58.845Z,55.18
2018-12-10T10:52:33.310Z,55.26
2018-12-10T10:55:00.945Z,56.27
2018-12-10T10:57:31.365Z,56.13
2018-12-10T10:59:59.895Z,55.65
2018-12-10T11:02:42.220Z,55.19
2018-12-10T11:05:11.147Z,54.92
2018-12-10T11:07:41.486Z,53.93
2018-12-10T11:10:12.427Z,53.29
2018-12-10T11:12:40.818Z,52.62
2018-12-10T11:15:11.525Z,52.81
2018-12-10T11:17:41.190Z,55.66
2018-12-10T11:20:09.746Z,50.88
2018-12-10T11:22:40.347Z,52.39
2018-12-10T11:25:09.238Z,51.92
2018-12-10T11:27:39.562Z,51.71
2018-12-10T11:30:08.723Z,52.70
2018-12-10T11:32:37.588Z,53.18
2018-12-10T11:35:07.244Z,53.24
2018-12-10T11:37:37.426Z,53.23
2018-12-10T11:40:08.604Z,52.74
2018-12-10T11:42:37.049Z,52.41
2018-12-10T11:45:06.084Z,52.55
2018-12-10T11:47:35.011Z,53.19
2018-12-10T11:50:04.769Z,54.22
2018-12-10T11:52:36.048Z,54.27
2018-12-10T11:55:05.269Z,55.80
2018-12-10T11:57:34.556Z,59.62
2018-12-10T12:00:03.061Z,63.11
2018-12-10T12:02:33.402Z,64.51
2018-12-10T12:05:02.350Z,66.08
2018-12-10T12:07:31.241Z,66.40
2018-12-10T12:10:00.399Z,67.98
2018-12-10T12:12:29.063Z,67.92
2018-12-10T12:14:57.612Z,69.11
2018-12-10T12:17:26.067Z,69.81
2018-12-10T12:19:54.901Z,70.37
2018-12-10T12:22:23.362Z,70.11
2018-12-10T12:24:52.010Z,70.33
2018-12-10T12:27:20.432Z,70.87
2018-12-10T12:29:48.936Z,70.75
2018-12-10T12:32:17.633Z,70.85
2018-12-10T12:34:46.312Z,70.77
2018-12-10T12:37:14.813Z,70.35
2018-12-10T12:39:43.265Z,70.60
2018-12-10T12:42:11.685Z,70.29
2018-12-10T12:44:40.145Z,69.50
2018-12-10T12:47:08.948Z,70.08
2018-12-10T12:49:37.368Z,70.61
2018-12-10T12:52:05.851Z,69.13
2018-12-10T12:54:34.550Z,69.42
2018-12-10T12:57:03.335Z,68.08
2018-12-10T12:59:31.804Z,68.12
2018-12-10T13:02:00.267Z,68.36
2018-12-10T13:04:30.779Z,68.35
2018-12-10T13:06:59.271Z,68.57
2018-12-10T13:09:27.953Z,68.28
2018-12-10T13:11:56.903Z,68.29
2018-12-10T13:14:25.409Z,68.51
2018-12-10T13:16:53.896Z,68.82
2018-12-10T13:19:22.577Z,68.57
2018-12-10T13:21:51.504Z,69.21
2018-12-10T13:24:21.048Z,68.92
2018-12-10T13:26:50.503Z,67.79
2018-12-10T13:29:19.166Z,67.31
2018-12-10T13:31:49.394Z,66.64
2018-12-10T13:34:17.800Z,65.98
2018-12-10T13:36:46.305Z,65.45
2018-12-10T13:39:14.979Z,65.87
2018-12-10T13:41:43.435Z,65.26
2018-12-10T13:44:11.925Z,65.24
2018-12-10T13:46:40.791Z,64.88
2018-12-10T13:49:09.249Z,64.94
2018-12-10T13:51:38.796Z,65.27
2018-12-10T13:54:07.262Z,64.82
2018-12-10T13:56:36.794Z,64.91
2018-12-10T13:59:05.890Z,63.38
2018-12-10T14:01:34.332Z,62.92
2018-12-10T14:04:05.031Z,62.20
2018-12-10T14:06:33.741Z,62.59
2018-12-10T14:09:08.018Z,63.32
2018-12-10T14:11:37.706Z,64.30
2018-12-10T14:14:06.168Z,64.79
2018-12-10T14:16:36.117Z,65.61
2018-12-10T14:19:07.523Z,65.62
2018-12-10T14:21:38.486Z,66.32
2018-12-10T14:24:07.388Z,66.72
2018-12-10T14:26:38.262Z,66.33
2018-12-10T14:29:07.309Z,64.24
2018-12-10T14:31:36.395Z,61.48
2018-12-10T14:34:11.609Z,59.34
2018-12-10T14:36:41.719Z,57.97
2018-12-10T14:39:10.525Z,57.74
2018-12-10T14:41:39.035Z,55.82
2018-12-10T14:44:07.537Z,55.84
2018-12-10T14:46:35.980Z,55.30
2018-12-10T14:49:05.585Z,54.66
2018-12-10T14:51:34.388Z,56.65
2018-12-10T14:54:03.824Z,58.19
2018-12-10T14:56:32.399Z,55.94
2018-12-10T14:59:03.514Z,56.77
2018-12-10T15:01:32.745Z,56.18
2018-12-10T15:04:01.509Z,55.32
2018-12-10T15:06:30.381Z,55.42
2018-12-10T15:08:58.872Z,56.59
2018-12-10T15:11:27.322Z,57.00
2018-12-10T15:13:55.766Z,57.87
2018-12-10T15:16:24.392Z,58.87
2018-12-10T15:18:54.748Z,59.45
2018-12-10T15:21:23.270Z,59.61
2018-12-10T15:23:51.823Z,59.41
2018-12-10T15:26:20.709Z,59.41
2018-12-10T15:28:50.495Z,59.17
2018-12-10T15:31:18.986Z,59.08
2018-12-10T15:33:48.037Z,58.88
2018-12-10T15:36:16.794Z,59.52
2018-12-10T15:38:45.363Z,63.80
2018-12-10T15:41:14.093Z,63.91
2018-12-10T15:43:43.360Z,62.79
2018-12-10T15:46:12.762Z,62.38
2018-12-10T15:48:41.502Z,62.09
2018-12-10T15:51:10.255Z,62.93
2018-12-10T15:53:39.482Z,62.20
2018-12-10T15:56:08.633Z,60.99
2018-12-10T15:58:37.408Z,61.24
2018-12-10T16:01:05.906Z,59.99
2018-12-10T16:03:34.494Z,59.45
2018-12-10T16:06:03.037Z,60.11
2018-12-10T16:08:31.520Z,61.70
2018-12-10T16:11:00.141Z,63.64
2018-12-10T16:13:28.683Z,63.95
2018-12-10T16:15:57.485Z,64.84
2018-12-10T16:18:26.940Z,66.77
2018-12-10T16:20:55.490Z,67.04
2018-12-10T16:23:24.039Z,66.98
2018-12-10T16:25:53.350Z,67.07
2018-12-10T16:28:21.875Z,67.40
2018-12-10T16:30:50.639Z,67.83
2018-12-10T16:33:19.302Z,68.89
2018-12-10T16:35:48.549Z,69.06
2018-12-10T16:38:17.468Z,68.82
2018-12-10T16:40:46.348Z,68.41
2018-12-10T16:43:15.226Z,68.69
2018-12-10T16:45:44.364Z,68.90
2018-12-10T16:48:13.973Z,68.91
2018-12-10T16:50:43.034Z,68.65
2018-12-10T16:53:12.608Z,68.24
2018-12-10T16:55:41.443Z,68.73
2018-12-10T16:58:10.867Z,69.90
2018-12-10T17:00:39.898Z,69.77
2018-12-10T17:03:08.359Z,70.89
2018-12-10T17:05:36.835Z,71.81
2018-12-10T17:08:05.270Z,72.02
2018-12-10T17:10:34.108Z,71.98
2018-12-10T17:13:02.591Z,72.87
2018-12-10T17:15:31.047Z,73.19
2018-12-10T17:17:59.458Z,73.33
2018-12-10T17:20:28.103Z,70.46
2018-12-10T17:22:56.921Z,71.92
2018-12-10T17:25:25.810Z,71.96
2018-12-10T17:27:54.286Z,71.98
2018-12-10T17:30:22.817Z,71.50
2018-12-10T17:32:51.231Z,71.17
2018-12-10T17:35:19.700Z,71.11
2018-12-10T17:37:48.499Z,71.48
2018-12-10T17:40:16.975Z,70.74
2018-12-10T17:42:45.436Z,70.84
2018-12-10T17:45:14.816Z,70.79
2018-12-10T17:47:43.333Z,70.60
2018-12-10T17:50:11.804Z,71.64
2018-12-10T17:52:40.322Z,72.54
2018-12-10T17:55:10.278Z,73.25
2018-12-10T17:57:38.822Z,73.57
2018-12-10T18:00:09.324Z,73.53
2018-12-10T18:02:37.768Z,73.01
2018-12-10T18:05:06.503Z,73.22
2018-12-10T18:07:35.057Z,73.62
2018-12-10T18:10:04.041Z,74.29
2018-12-10T18:12:32.615Z,75.14
2018-12-10T18:15:01.162Z,75.80
2018-12-10T18:17:29.660Z,76.16
2018-12-10T18:19:58.153Z,76.93
2018-12-10T18:22:26.766Z,77.08
2018-12-10T18:24:55.321Z,77.35
2018-12-10T18:27:23.871Z,77.49
2018-12-10T18:29:52.416Z,77.69
2018-12-10T18:32:20.959Z,78.13
2018-12-10T18:34:49.494Z,78.54
2018-12-10T18:37:18.075Z,77.08
2018-12-10T18:39:46.620Z,77.62
2018-12-10T18:42:15.140Z,78.07
2018-12-10T18:44:43.936Z,78.25
2018-12-10T18:47:12.460Z,83.39
2018-12-10T18:49:40.993Z,78.17
2018-12-10T18:52:09.464Z,75.69
2018-12-10T18:54:38.013Z,75.76
2018-12-10T18:57:06.500Z,76.49
2018-12-10T18:59:35.129Z,75.43
2018-12-10T19:02:03.601Z,75.68
2018-12-10T19:04:32.179Z,76.16
2018-12-10T19:07:01.073Z,76.83
2018-12-10T19:09:29.684Z,77.53
2018-12-10T19:11:59.152Z,77.39
2018-12-10T19:14:28.034Z,77.45
2018-12-10T19:16:56.574Z,77.61
2018-12-10T19:19:25.456Z,77.73
2018-12-10T19:21:55.008Z,77.97
2018-12-10T19:24:24.007Z,78.15
2018-12-10T19:26:52.557Z,78.10
2018-12-10T19:29:21.093Z,78.40
2018-12-10T19:31:49.774Z,78.54
2018-12-10T19:34:18.356Z,78.97
2018-12-10T19:36:46.922Z,78.86
2018-12-10T19:39:15.451Z,79.32
2018-12-10T19:41:44.149Z,79.62
2018-12-10T19:44:12.700Z,79.64
2018-12-10T19:46:41.324Z,79.63
2018-12-10T19:49:09.954Z,79.55
2018-12-10T19:51:38.708Z,79.62
2018-12-10T19:54:07.397Z,79.65
2018-12-10T19:56:36.029Z,79.80
2018-12-10T19:59:04.617Z,79.71
2018-12-10T20:01:33.217Z,79.39
2018-12-10T20:04:01.858Z,79.58
2018-12-10T20:06:32.546Z,79.57
2018-12-10T20:09:01.052Z,79.41
2018-12-10T20:11:31.277Z,80.32
2018-12-10T20:13:59.834Z,85.38
2018-12-10T20:16:29.189Z,81.99
2018-12-10T20:18:57.796Z,79.66
2018-12-10T20:21:26.287Z,74.65
2018-12-10T20:23:54.814Z,74.84
2018-12-10T20:26:23.657Z,75.52
2018-12-10T20:28:52.275Z,75.50
2018-12-10T20:31:20.807Z,76.45
2018-12-10T20:33:49.391Z,77.95
2018-12-10T20:36:18.373Z,79.48
2018-12-10T20:38:46.951Z,80.31
2018-12-10T20:41:15.582Z,79.60
2018-12-10T20:43:44.194Z,80.72
2018-12-10T20:46:12.746Z,80.91
2018-12-10T20:48:41.325Z,80.83
2018-12-10T20:51:09.802Z,80.79
2018-12-10T20:53:38.882Z,81.02
2018-12-10T20:56:07.647Z,80.95
2018-12-10T20:58:36.691Z,81.25
2018-12-10T21:01:05.678Z,81.64
2018-12-10T21:03:34.405Z,81.78
2018-12-10T21:06:08.981Z,81.46
2018-12-10T21:08:37.564Z,81.46
2018-12-10T21:11:06.170Z,81.77
2018-12-10T21:13:35.804Z,81.59
2018-12-10T21:16:04.399Z,81.61
2018-12-10T21:18:32.938Z,81.58
2018-12-10T21:21:01.561Z,82.00
2018-12-10T21:23:30.198Z,82.29
2018-12-10T21:26:14.862Z,82.22
2018-12-10T21:28:44.294Z,82.19
2018-12-10T21:31:12.938Z,82.36
2018-12-10T21:33:41.594Z,82.21
2018-12-10T21:36:10.142Z,82.34
2018-12-10T21:38:38.912Z,82.35
2018-12-10T21:41:07.503Z,82.46
2018-12-10T21:43:36.455Z,82.45
2018-12-10T21:46:05.252Z,82.61
2018-12-10T21:48:34.079Z,82.17
2018-12-10T21:51:02.573Z,82.59
2018-12-10T21:53:31.455Z,82.79
2018-12-10T21:55:59.925Z,82.75
2018-12-10T21:58:28.335Z,82.75
2018-12-10T22:00:56.827Z,82.64
2018-12-10T22:03:25.328Z,82.83
2018-12-10T22:05:53.812Z,82.89
2018-12-10T22:08:22.298Z,82.78
2018-12-10T22:10:51.476Z,83.03
2018-12-10T22:13:20.827Z,83.41
2018-12-10T22:15:49.362Z,83.68
2018-12-10T22:18:17.905Z,84.00
2018-12-10T22:20:46.590Z,83.42
2018-12-10T22:23:15.079Z,83.58
2018-12-10T22:25:43.595Z,84.84
2018-12-10T22:28:12.309Z,84.01
2018-12-10T22:30:41.019Z,83.19
2018-12-10T22:33:09.519Z,83.65
2018-12-10T22:35:37.981Z,83.31
2018-12-10T22:38:06.912Z,84.07
2018-12-10T22:40:35.406Z,84.04
2018-12-10T22:43:03.867Z,83.62
2018-12-10T22:45:32.326Z,83.89
2018-12-10T22:48:00.844Z,83.56
2018-12-10T22:50:29.441Z,82.85
2018-12-10T22:52:57.900Z,82.81
2018-12-10T22:55:26.399Z,82.54
2018-12-10T22:57:54.933Z,82.51
2018-12-10T23:00:25.537Z,83.30
2018-12-10T23:02:54.033Z,84.00
2018-12-10T23:05:22.470Z,84.20
2018-12-10T23:07:50.930Z,84.10
2018-12-10T23:10:20.383Z,83.37
2018-12-10T23:12:48.811Z,83.51
2018-12-10T23:15:18.061Z,83.60
2018-12-10T23:17:46.594Z,83.51
2018-12-10T23:20:15.285Z,83.68
2018-12-10T23:22:43.973Z,84.04
2018-12-10T23:25:14.170Z,83.67
2018-12-10T23:27:43.856Z,84.23
2018-12-10T23:30:13.160Z,84.44
2018-12-10T23:32:48.607Z,84.38
2018-12-10T23:35:18.220Z,84.51
2018-12-10T23:37:46.649Z,84.04
2018-12-10T23:40:15.147Z,84.24
2018-12-10T23:45:45.293Z,84.35
2018-12-10T23:48:14.006Z,85.09
2018-12-10T23:50:42.425Z,85.75
2018-12-10T23:53:10.889Z,86.13
2018-12-10T23:55:39.347Z,86.24
2018-12-10T23:58:07.802Z,86.16
